sensor_id;sensor_type;location;lat;lon;timestamp;pressure;altitude;pressure_sealevel;temperature;humidity
38912;BME280;28444;48.056;14.408;2023-06-19T00:02:19;97370.50;;;16.70;73.90
38912;BME280;28444;48.056;14.408;2023-06-19T00:05:06;97378.06;;;16.69;73.34
38912;BME280;28444;48.056;14.408;2023-06-19T00:07:54;97370.41;;;16.68;73.55
38912;BME280;28444;48.056;14.408;2023-06-19T00:10:41;97377.16;;;16.65;73.79
38912;BME280;28444;48.056;14.408;2023-06-19T00:13:28;97369.50;;;16.63;73.42
38912;BME280;28444;48.056;14.408;2023-06-19T00:16:15;97369.50;;;16.63;73.63
38912;BME280;28444;48.056;14.408;2023-06-19T00:19:02;97372.13;;;16.61;73.78
38912;BME280;28444;48.056;14.408;2023-06-19T00:21:50;97367.53;;;16.66;73.57
38912;BME280;28444;48.056;14.408;2023-06-19T00:24:36;97368.66;;;16.60;74.01
38912;BME280;28444;48.056;14.408;2023-06-19T00:27:23;97363.03;;;16.58;73.85
38912;BME280;28444;48.056;14.408;2023-06-19T00:30:14;97362.53;;;16.62;72.99
38912;BME280;28444;48.056;14.408;2023-06-19T00:33:01;97360.47;;;16.63;73.50
38912;BME280;28444;48.056;14.408;2023-06-19T00:35:50;97365.78;;;16.58;73.87
38912;BME280;28444;48.056;14.408;2023-06-19T00:38:38;97368.53;;;16.58;73.20
38912;BME280;28444;48.056;14.408;2023-06-19T00:41:26;97372.50;;;16.55;72.76
38912;BME280;28444;48.056;14.408;2023-06-19T00:44:14;97363.31;;;16.51;73.49
38912;BME280;28444;48.056;14.408;2023-06-19T00:47:03;97368.81;;;16.51;73.35
38912;BME280;28444;48.056;14.408;2023-06-19T00:49:50;97375.47;;;16.46;74.34
38912;BME280;28444;48.056;14.408;2023-06-19T00:52:38;97368.38;;;16.43;73.85
38912;BME280;28444;48.056;14.408;2023-06-19T00:55:28;97369.59;;;16.40;73.98
38912;BME280;28444;48.056;14.408;2023-06-19T00:58:17;97372.00;;;16.33;73.85
38912;BME280;28444;48.056;14.408;2023-06-19T01:01:04;97369.16;;;16.31;73.82
38912;BME280;28444;48.056;14.408;2023-06-19T01:03:55;97370.00;;;16.34;73.98
38912;BME280;28444;48.056;14.408;2023-06-19T01:07:07;97371.78;;;16.29;73.91
38912;BME280;28444;48.056;14.408;2023-06-19T01:10:02;97372.06;;;16.22;74.36
38912;BME280;28444;48.056;14.408;2023-06-19T01:12:58;97373.06;;;16.15;74.84
38912;BME280;28444;48.056;14.408;2023-06-19T01:15:47;97374.03;;;16.07;75.67
38912;BME280;28444;48.056;14.408;2023-06-19T01:18:35;97379.59;;;15.96;76.07
38912;BME280;28444;48.056;14.408;2023-06-19T01:21:22;97381.50;;;15.93;75.35
38912;BME280;28444;48.056;14.408;2023-06-19T01:24:10;97379.09;;;15.99;74.96
38912;BME280;28444;48.056;14.408;2023-06-19T01:26:56;97381.50;;;15.93;75.34
38912;BME280;28444;48.056;14.408;2023-06-19T01:29:44;97376.13;;;15.95;75.27
38912;BME280;28444;48.056;14.408;2023-06-19T01:35:23;97373.00;;;15.89;75.37
38912;BME280;28444;48.056;14.408;2023-06-19T01:38:12;97371.59;;;15.88;76.22
38912;BME280;28444;48.056;14.408;2023-06-19T01:41:00;97371.38;;;15.84;75.89
38912;BME280;28444;48.056;14.408;2023-06-19T01:43:49;97368.59;;;15.72;76.12
38912;BME280;28444;48.056;14.408;2023-06-19T01:46:36;97368.03;;;15.74;76.86
38912;BME280;28444;48.056;14.408;2023-06-19T01:49:23;97365.50;;;15.78;75.98
38912;BME280;28444;48.056;14.408;2023-06-19T01:52:10;97366.81;;;15.77;76.39
38912;BME280;28444;48.056;14.408;2023-06-19T01:54:57;97370.41;;;15.79;75.87
38912;BME280;28444;48.056;14.408;2023-06-19T01:57:44;97365.63;;;15.68;76.25
38912;BME280;28444;48.056;14.408;2023-06-19T02:00:32;97370.31;;;15.66;76.66
38912;BME280;28444;48.056;14.408;2023-06-19T02:03:22;97369.81;;;15.57;76.54
38912;BME280;28444;48.056;14.408;2023-06-19T02:06:09;97373.53;;;15.50;77.16
38912;BME280;28444;48.056;14.408;2023-06-19T02:08:56;97379.41;;;15.45;77.60
38912;BME280;28444;48.056;14.408;2023-06-19T02:11:43;97374.38;;;15.41;77.84
38912;BME280;28444;48.056;14.408;2023-06-19T02:14:29;97373.53;;;15.38;76.99
38912;BME280;28444;48.056;14.408;2023-06-19T02:17:16;97369.38;;;15.37;77.17
38912;BME280;28444;48.056;14.408;2023-06-19T02:20:04;97370.53;;;15.46;77.00
38912;BME280;28444;48.056;14.408;2023-06-19T02:22:55;97366.00;;;15.39;77.48
38912;BME280;28444;48.056;14.408;2023-06-19T02:25:42;97375.84;;;15.30;77.49
38912;BME280;28444;48.056;14.408;2023-06-19T02:28:29;97371.88;;;15.22;77.46
38912;BME280;28444;48.056;14.408;2023-06-19T02:31:16;97371.28;;;15.23;77.87
38912;BME280;28444;48.056;14.408;2023-06-19T02:34:03;97375.00;;;15.16;78.47
38912;BME280;28444;48.056;14.408;2023-06-19T02:36:51;97372.38;;;15.18;77.85
38912;BME280;28444;48.056;14.408;2023-06-19T02:39:38;97360.97;;;15.12;78.30
38912;BME280;28444;48.056;14.408;2023-06-19T02:42:25;97367.91;;;15.13;77.91
38912;BME280;28444;48.056;14.408;2023-06-19T02:45:12;97369.13;;;15.10;78.17
38912;BME280;28444;48.056;14.408;2023-06-19T02:47:59;97370.91;;;15.05;78.58
38912;BME280;28444;48.056;14.408;2023-06-19T02:50:46;97368.06;;;15.03;79.16
38912;BME280;28444;48.056;14.408;2023-06-19T02:53:33;97372.09;;;15.02;79.30
38912;BME280;28444;48.056;14.408;2023-06-19T02:56:20;97383.00;;;15.00;79.11
38912;BME280;28444;48.056;14.408;2023-06-19T02:59:07;97380.50;;;15.04;78.54
38912;BME280;28444;48.056;14.408;2023-06-19T03:01:53;97388.16;;;15.06;78.97
38912;BME280;28444;48.056;14.408;2023-06-19T03:04:40;97388.63;;;15.02;78.69
38912;BME280;28444;48.056;14.408;2023-06-19T03:07:28;97395.44;;;15.01;78.60
38912;BME280;28444;48.056;14.408;2023-06-19T03:10:15;97402.03;;;14.96;78.81
38912;BME280;28444;48.056;14.408;2023-06-19T03:13:02;97404.19;;;14.98;78.69
38912;BME280;28444;48.056;14.408;2023-06-19T03:15:49;97405.13;;;14.90;78.68
38912;BME280;28444;48.056;14.408;2023-06-19T03:18:36;97418.75;;;14.88;78.84
38912;BME280;28444;48.056;14.408;2023-06-19T03:21:22;97413.94;;;14.77;79.37
38912;BME280;28444;48.056;14.408;2023-06-19T03:24:09;97418.16;;;14.78;79.04
38912;BME280;28444;48.056;14.408;2023-06-19T03:26:56;97426.44;;;14.90;78.60
38912;BME280;28444;48.056;14.408;2023-06-19T03:29:43;97418.66;;;14.98;78.44
38912;BME280;28444;48.056;14.408;2023-06-19T03:32:30;97415.91;;;14.98;78.40
38912;BME280;28444;48.056;14.408;2023-06-19T03:35:18;97422.38;;;15.03;78.76
38912;BME280;28444;48.056;14.408;2023-06-19T03:38:05;97415.19;;;14.98;79.29
38912;BME280;28444;48.056;14.408;2023-06-19T03:40:52;97428.97;;;14.98;78.67
38912;BME280;28444;48.056;14.408;2023-06-19T03:43:39;97420.47;;;15.05;79.26
38912;BME280;28444;48.056;14.408;2023-06-19T03:46:26;97415.56;;;15.04;79.25
38912;BME280;28444;48.056;14.408;2023-06-19T03:49:13;97428.25;;;14.97;79.76
38912;BME280;28444;48.056;14.408;2023-06-19T03:52:00;97413.41;;;15.02;79.04
38912;BME280;28444;48.056;14.408;2023-06-19T03:54:47;97418.56;;;15.08;79.66
38912;BME280;28444;48.056;14.408;2023-06-19T03:57:34;97423.22;;;15.05;79.60
38912;BME280;28444;48.056;14.408;2023-06-19T04:00:21;97426.47;;;15.13;79.04
38912;BME280;28444;48.056;14.408;2023-06-19T04:03:09;97424.69;;;15.18;79.19
38912;BME280;28444;48.056;14.408;2023-06-19T04:05:57;97432.81;;;15.16;79.45
38912;BME280;28444;48.056;14.408;2023-06-19T04:08:44;97436.06;;;15.24;78.56
38912;BME280;28444;48.056;14.408;2023-06-19T04:11:31;97434.63;;;15.35;77.73
38912;BME280;28444;48.056;14.408;2023-06-19T04:14:18;97434.53;;;15.45;77.17
38912;BME280;28444;48.056;14.408;2023-06-19T04:17:15;97436.19;;;15.50;77.05
38912;BME280;28444;48.056;14.408;2023-06-19T04:20:07;97427.81;;;15.59;76.44
38912;BME280;28444;48.056;14.408;2023-06-19T04:22:58;97432.50;;;15.69;76.48
38912;BME280;28444;48.056;14.408;2023-06-19T04:25:45;97432.25;;;15.76;76.21
38912;BME280;28444;48.056;14.408;2023-06-19T04:28:32;97428.41;;;15.81;76.41
38912;BME280;28444;48.056;14.408;2023-06-19T04:31:19;97421.69;;;15.84;75.98
38912;BME280;28444;48.056;14.408;2023-06-19T04:34:06;97429.34;;;15.86;76.33
38912;BME280;28444;48.056;14.408;2023-06-19T04:36:53;97436.41;;;16.01;75.35
38912;BME280;28444;48.056;14.408;2023-06-19T04:39:40;97435.16;;;16.16;75.48
38912;BME280;28444;48.056;14.408;2023-06-19T04:42:27;97444.50;;;16.34;74.67
38912;BME280;28444;48.056;14.408;2023-06-19T04:45:14;97438.22;;;16.45;74.46
38912;BME280;28444;48.056;14.408;2023-06-19T04:48:01;97441.84;;;16.61;74.01
38912;BME280;28444;48.056;14.408;2023-06-19T04:50:51;97440.72;;;16.78;73.83
38912;BME280;28444;48.056;14.408;2023-06-19T04:53:39;97435.84;;;16.91;72.78
38912;BME280;28444;48.056;14.408;2023-06-19T04:56:25;97442.97;;;17.07;72.69
38912;BME280;28444;48.056;14.408;2023-06-19T04:59:12;97444.84;;;17.30;72.26
38912;BME280;28444;48.056;14.408;2023-06-19T05:02:04;97447.00;;;17.46;71.45
38912;BME280;28444;48.056;14.408;2023-06-19T05:04:53;97441.84;;;17.79;70.35
38912;BME280;28444;48.056;14.408;2023-06-19T05:07:40;97443.56;;;18.00;69.48
38912;BME280;28444;48.056;14.408;2023-06-19T05:10:27;97452.78;;;18.05;68.98
38912;BME280;28444;48.056;14.408;2023-06-19T05:13:14;97451.94;;;18.16;69.84
38912;BME280;28444;48.056;14.408;2023-06-19T05:16:01;97465.16;;;18.18;71.08
38912;BME280;28444;48.056;14.408;2023-06-19T05:18:48;97460.56;;;18.09;71.09
38912;BME280;28444;48.056;14.408;2023-06-19T05:21:36;97472.63;;;18.15;70.14
38912;BME280;28444;48.056;14.408;2023-06-19T05:24:22;97479.63;;;18.02;71.04
38912;BME280;28444;48.056;14.408;2023-06-19T05:27:09;97479.22;;;17.94;71.54
38912;BME280;28444;48.056;14.408;2023-06-19T05:29:56;97480.03;;;17.97;71.68
38912;BME280;28444;48.056;14.408;2023-06-19T05:32:43;97475.50;;;18.03;70.13
38912;BME280;28444;48.056;14.408;2023-06-19T05:35:30;97474.69;;;18.15;70.36
38912;BME280;28444;48.056;14.408;2023-06-19T05:38:18;97477.34;;;18.26;70.45
38912;BME280;28444;48.056;14.408;2023-06-19T05:41:06;97484.69;;;18.36;70.26
38912;BME280;28444;48.056;14.408;2023-06-19T05:43:53;97491.03;;;18.52;69.83
38912;BME280;28444;48.056;14.408;2023-06-19T05:46:41;97488.91;;;18.66;68.89
38912;BME280;28444;48.056;14.408;2023-06-19T05:49:28;97492.22;;;18.63;68.39
38912;BME280;28444;48.056;14.408;2023-06-19T05:52:15;97487.09;;;18.71;68.58
38912;BME280;28444;48.056;14.408;2023-06-19T05:55:03;97491.25;;;18.86;68.00
38912;BME280;28444;48.056;14.408;2023-06-19T05:57:50;97492.78;;;18.89;68.44
38912;BME280;28444;48.056;14.408;2023-06-19T06:00:38;97494.84;;;18.88;68.83
38912;BME280;28444;48.056;14.408;2023-06-19T06:03:25;97490.47;;;18.99;69.21
38912;BME280;28444;48.056;14.408;2023-06-19T06:06:12;97495.06;;;18.79;69.57
38912;BME280;28444;48.056;14.408;2023-06-19T06:08:59;97500.63;;;18.65;69.98
38912;BME280;28444;48.056;14.408;2023-06-19T06:11:46;97498.19;;;18.71;69.92
38912;BME280;28444;48.056;14.408;2023-06-19T06:14:33;97494.97;;;18.76;70.76
38912;BME280;28444;48.056;14.408;2023-06-19T06:17:20;97499.13;;;18.91;69.96
38912;BME280;28444;48.056;14.408;2023-06-19T06:20:07;97498.50;;;18.93;69.34
38912;BME280;28444;48.056;14.408;2023-06-19T06:22:59;97501.22;;;19.07;67.94
38912;BME280;28444;48.056;14.408;2023-06-19T06:25:46;97499.00;;;19.19;67.56
38912;BME280;28444;48.056;14.408;2023-06-19T06:28:33;97500.38;;;19.34;67.20
38912;BME280;28444;48.056;14.408;2023-06-19T06:31:19;97510.50;;;19.43;65.04
38912;BME280;28444;48.056;14.408;2023-06-19T06:34:07;97517.44;;;19.44;64.87
38912;BME280;28444;48.056;14.408;2023-06-19T06:36:54;97516.03;;;19.59;64.61
38912;BME280;28444;48.056;14.408;2023-06-19T06:39:52;97517.84;;;19.68;64.36
38912;BME280;28444;48.056;14.408;2023-06-19T06:42:39;97525.63;;;19.87;64.40
38912;BME280;28444;48.056;14.408;2023-06-19T06:45:26;97525.75;;;20.23;63.22
38912;BME280;28444;48.056;14.408;2023-06-19T06:48:14;97520.13;;;20.55;63.05
38912;BME280;28444;48.056;14.408;2023-06-19T06:51:00;97520.06;;;20.88;62.45
38912;BME280;28444;48.056;14.408;2023-06-19T06:53:48;97514.66;;;21.28;61.67
38912;BME280;28444;48.056;14.408;2023-06-19T06:56:35;97516.06;;;21.29;61.49
38912;BME280;28444;48.056;14.408;2023-06-19T06:59:22;97526.56;;;21.69;60.13
38912;BME280;28444;48.056;14.408;2023-06-19T07:02:09;97528.50;;;22.04;59.92
38912;BME280;28444;48.056;14.408;2023-06-19T07:04:56;97531.50;;;22.30;59.20
38912;BME280;28444;48.056;14.408;2023-06-19T07:07:43;97530.63;;;22.67;57.86
38912;BME280;28444;48.056;14.408;2023-06-19T07:10:31;97528.88;;;22.78;58.69
38912;BME280;28444;48.056;14.408;2023-06-19T07:13:18;97524.34;;;23.11;57.27
38912;BME280;28444;48.056;14.408;2023-06-19T07:16:05;97521.75;;;23.41;57.50
38912;BME280;28444;48.056;14.408;2023-06-19T07:18:52;97527.56;;;23.49;57.16
38912;BME280;28444;48.056;14.408;2023-06-19T07:21:39;97530.50;;;23.53;55.25
38912;BME280;28444;48.056;14.408;2023-06-19T07:24:26;97530.59;;;23.57;56.62
38912;BME280;28444;48.056;14.408;2023-06-19T07:27:13;97538.16;;;23.76;52.02
38912;BME280;28444;48.056;14.408;2023-06-19T07:30:00;97541.00;;;23.78;54.91
38912;BME280;28444;48.056;14.408;2023-06-19T07:32:47;97537.31;;;23.72;54.88
38912;BME280;28444;48.056;14.408;2023-06-19T07:35:34;97536.88;;;23.82;51.84
38912;BME280;28444;48.056;14.408;2023-06-19T07:38:22;97532.25;;;23.90;54.92
38912;BME280;28444;48.056;14.408;2023-06-19T07:41:09;97535.03;;;23.90;54.43
38912;BME280;28444;48.056;14.408;2023-06-19T07:43:57;97535.19;;;23.70;51.73
38912;BME280;28444;48.056;14.408;2023-06-19T07:46:44;97533.38;;;23.33;51.84
38912;BME280;28444;48.056;14.408;2023-06-19T07:49:31;97534.09;;;23.34;54.01
38912;BME280;28444;48.056;14.408;2023-06-19T07:52:18;97540.34;;;23.32;54.54
38912;BME280;28444;48.056;14.408;2023-06-19T07:55:05;97536.69;;;23.27;57.93
38912;BME280;28444;48.056;14.408;2023-06-19T07:57:52;97531.66;;;23.22;56.33
38912;BME280;28444;48.056;14.408;2023-06-19T08:00:40;97535.50;;;23.11;55.54
38912;BME280;28444;48.056;14.408;2023-06-19T08:03:26;97534.53;;;23.02;55.46
38912;BME280;28444;48.056;14.408;2023-06-19T08:06:14;97540.66;;;22.96;56.63
38912;BME280;28444;48.056;14.408;2023-06-19T08:09:01;97542.13;;;22.77;57.45
38912;BME280;28444;48.056;14.408;2023-06-19T08:11:48;97548.97;;;22.74;58.35
38912;BME280;28444;48.056;14.408;2023-06-19T08:14:34;97566.28;;;22.71;58.15
38912;BME280;28444;48.056;14.408;2023-06-19T08:17:21;97569.66;;;22.67;58.18
38912;BME280;28444;48.056;14.408;2023-06-19T08:20:09;97561.97;;;22.46;58.27
38912;BME280;28444;48.056;14.408;2023-06-19T08:22:56;97550.56;;;22.18;59.97
38912;BME280;28444;48.056;14.408;2023-06-19T08:25:43;97549.94;;;22.19;60.23
38912;BME280;28444;48.056;14.408;2023-06-19T08:28:33;97572.28;;;22.41;62.07
38912;BME280;28444;48.056;14.408;2023-06-19T08:31:20;97567.31;;;22.40;59.51
38912;BME280;28444;48.056;14.408;2023-06-19T08:34:13;97553.41;;;22.40;58.89
38912;BME280;28444;48.056;14.408;2023-06-19T08:37:00;97553.44;;;22.62;59.88
38912;BME280;28444;48.056;14.408;2023-06-19T08:39:47;97554.44;;;22.70;59.36
38912;BME280;28444;48.056;14.408;2023-06-19T08:42:35;97551.50;;;22.88;59.22
38912;BME280;28444;48.056;14.408;2023-06-19T08:45:22;97552.16;;;23.09;58.69
38912;BME280;28444;48.056;14.408;2023-06-19T08:48:13;97548.78;;;23.12;57.87
38912;BME280;28444;48.056;14.408;2023-06-19T08:51:00;97557.81;;;23.11;57.20
38912;BME280;28444;48.056;14.408;2023-06-19T08:53:49;97548.78;;;23.12;57.08
38912;BME280;28444;48.056;14.408;2023-06-19T08:56:39;97552.50;;;23.43;56.82
38912;BME280;28444;48.056;14.408;2023-06-19T08:59:26;97545.84;;;23.78;58.06
38912;BME280;28444;48.056;14.408;2023-06-19T09:02:15;97560.50;;;24.02;54.49
38912;BME280;28444;48.056;14.408;2023-06-19T09:05:12;97560.16;;;24.42;52.61
38912;BME280;28444;48.056;14.408;2023-06-19T09:08:00;97562.75;;;24.08;53.02
38912;BME280;28444;48.056;14.408;2023-06-19T09:11:02;97566.13;;;24.31;53.32
38912;BME280;28444;48.056;14.408;2023-06-19T09:13:56;97566.03;;;24.53;52.06
38912;BME280;28444;48.056;14.408;2023-06-19T09:16:43;97567.25;;;24.73;54.20
38912;BME280;28444;48.056;14.408;2023-06-19T09:19:30;97559.31;;;24.64;50.88
38912;BME280;28444;48.056;14.408;2023-06-19T09:22:20;97563.75;;;24.73;51.66
38912;BME280;28444;48.056;14.408;2023-06-19T09:25:08;97568.44;;;24.94;51.38
38912;BME280;28444;48.056;14.408;2023-06-19T09:27:57;97571.09;;;25.16;50.26
38912;BME280;28444;48.056;14.408;2023-06-19T09:31:02;97565.25;;;25.08;50.36
38912;BME280;28444;48.056;14.408;2023-06-19T09:33:51;97555.19;;;24.95;52.13
38912;BME280;28444;48.056;14.408;2023-06-19T09:36:39;97553.91;;;24.72;49.10
38912;BME280;28444;48.056;14.408;2023-06-19T09:39:28;97562.56;;;24.54;51.79
38912;BME280;28444;48.056;14.408;2023-06-19T09:42:17;97558.56;;;24.35;50.76
38912;BME280;28444;48.056;14.408;2023-06-19T09:45:08;97559.88;;;24.32;51.12
38912;BME280;28444;48.056;14.408;2023-06-19T09:47:56;97564.59;;;24.25;52.69
38912;BME280;28444;48.056;14.408;2023-06-19T09:50:43;97557.75;;;24.31;53.63
38912;BME280;28444;48.056;14.408;2023-06-19T09:53:32;97556.25;;;24.54;53.04
38912;BME280;28444;48.056;14.408;2023-06-19T09:56:19;97552.84;;;24.57;51.55
38912;BME280;28444;48.056;14.408;2023-06-19T09:59:11;97555.25;;;24.41;50.90
38912;BME280;28444;48.056;14.408;2023-06-19T10:02:00;97556.00;;;24.43;52.30
38912;BME280;28444;48.056;14.408;2023-06-19T10:04:52;97564.22;;;24.65;50.10
38912;BME280;28444;48.056;14.408;2023-06-19T10:07:44;97554.13;;;24.52;50.25
38912;BME280;28444;48.056;14.408;2023-06-19T10:10:32;97547.47;;;24.65;52.49
38912;BME280;28444;48.056;14.408;2023-06-19T10:13:20;97547.97;;;24.86;50.65
38912;BME280;28444;48.056;14.408;2023-06-19T10:16:07;97556.97;;;24.82;50.03
38912;BME280;28444;48.056;14.408;2023-06-19T10:18:54;97551.47;;;24.86;50.51
38912;BME280;28444;48.056;14.408;2023-06-19T10:21:49;97551.44;;;24.84;51.57
38912;BME280;28444;48.056;14.408;2023-06-19T10:24:36;97552.41;;;24.97;51.52
38912;BME280;28444;48.056;14.408;2023-06-19T10:27:24;97556.63;;;24.98;50.23
38912;BME280;28444;48.056;14.408;2023-06-19T10:30:16;97550.00;;;24.83;50.88
38912;BME280;28444;48.056;14.408;2023-06-19T10:33:04;97549.91;;;25.09;52.05
38912;BME280;28444;48.056;14.408;2023-06-19T10:35:52;97544.63;;;25.21;50.73
38912;BME280;28444;48.056;14.408;2023-06-19T10:38:40;97545.56;;;25.32;49.46
38912;BME280;28444;48.056;14.408;2023-06-19T10:41:27;97545.19;;;25.48;51.38
38912;BME280;28444;48.056;14.408;2023-06-19T10:44:14;97541.75;;;25.52;50.31
38912;BME280;28444;48.056;14.408;2023-06-19T10:47:01;97535.75;;;25.65;49.13
38912;BME280;28444;48.056;14.408;2023-06-19T10:49:48;97538.50;;;25.63;49.12
38912;BME280;28444;48.056;14.408;2023-06-19T10:52:35;97542.91;;;25.73;49.43
38912;BME280;28444;48.056;14.408;2023-06-19T10:55:22;97529.06;;;25.79;49.50
38912;BME280;28444;48.056;14.408;2023-06-19T10:58:09;97520.31;;;25.99;51.13
38912;BME280;28444;48.056;14.408;2023-06-19T11:00:56;97519.75;;;26.06;50.09
38912;BME280;28444;48.056;14.408;2023-06-19T11:03:45;97515.69;;;26.13;49.93
38912;BME280;28444;48.056;14.408;2023-06-19T11:06:32;97509.69;;;26.29;49.97
38912;BME280;28444;48.056;14.408;2023-06-19T11:09:22;97511.28;;;26.42;49.99
38912;BME280;28444;48.056;14.408;2023-06-19T11:12:09;97504.28;;;26.41;48.39
38912;BME280;28444;48.056;14.408;2023-06-19T11:14:56;97505.75;;;26.45;48.27
38912;BME280;28444;48.056;14.408;2023-06-19T11:17:43;97509.19;;;26.43;47.21
38912;BME280;28444;48.056;14.408;2023-06-19T11:20:30;97498.09;;;26.47;47.51
38912;BME280;28444;48.056;14.408;2023-06-19T11:23:25;97491.78;;;26.47;47.74
38912;BME280;28444;48.056;14.408;2023-06-19T11:26:13;97491.28;;;26.58;47.91
38912;BME280;28444;48.056;14.408;2023-06-19T11:29:00;97483.09;;;26.73;47.18
38912;BME280;28444;48.056;14.408;2023-06-19T11:31:47;97487.59;;;26.94;46.46
38912;BME280;28444;48.056;14.408;2023-06-19T11:34:35;97479.53;;;27.17;45.63
38912;BME280;28444;48.056;14.408;2023-06-19T11:37:23;97476.88;;;27.29;43.17
38912;BME280;28444;48.056;14.408;2023-06-19T11:40:10;97480.63;;;27.46;45.61
38912;BME280;28444;48.056;14.408;2023-06-19T11:42:59;97481.28;;;27.44;43.16
38912;BME280;28444;48.056;14.408;2023-06-19T11:45:47;97474.78;;;27.29;42.74
38912;BME280;28444;48.056;14.408;2023-06-19T11:48:38;97475.50;;;27.30;42.96
38912;BME280;28444;48.056;14.408;2023-06-19T11:51:25;97481.81;;;27.30;43.66
38912;BME280;28444;48.056;14.408;2023-06-19T11:54:13;97471.53;;;27.51;42.93
38912;BME280;28444;48.056;14.408;2023-06-19T11:57:04;97473.34;;;27.85;43.24
38912;BME280;28444;48.056;14.408;2023-06-19T11:59:52;97474.69;;;27.78;41.95
38912;BME280;28444;48.056;14.408;2023-06-19T12:02:38;97468.59;;;28.00;41.88
38912;BME280;28444;48.056;14.408;2023-06-19T12:05:26;97472.09;;;27.98;42.26
38912;BME280;28444;48.056;14.408;2023-06-19T12:08:12;97472.06;;;27.96;42.44
38912;BME280;28444;48.056;14.408;2023-06-19T12:10:59;97462.94;;;27.98;40.25
38912;BME280;28444;48.056;14.408;2023-06-19T12:13:46;97467.94;;;28.05;40.99
38912;BME280;28444;48.056;14.408;2023-06-19T12:16:33;97451.13;;;28.10;41.30
38912;BME280;28444;48.056;14.408;2023-06-19T12:19:20;97463.03;;;28.06;41.08
38912;BME280;28444;48.056;14.408;2023-06-19T12:22:08;97457.44;;;28.08;43.15
38912;BME280;28444;48.056;14.408;2023-06-19T12:24:54;97465.94;;;28.16;39.23
38912;BME280;28444;48.056;14.408;2023-06-19T12:27:41;97461.81;;;28.25;40.07
38912;BME280;28444;48.056;14.408;2023-06-19T12:30:28;97455.66;;;28.43;37.89
38912;BME280;28444;48.056;14.408;2023-06-19T12:33:15;97458.56;;;28.58;38.58
38912;BME280;28444;48.056;14.408;2023-06-19T12:36:02;97450.03;;;28.45;38.03
38912;BME280;28444;48.056;14.408;2023-06-19T12:38:52;97439.22;;;28.11;37.39
38912;BME280;28444;48.056;14.408;2023-06-19T12:41:43;97439.00;;;27.91;37.63
38912;BME280;28444;48.056;14.408;2023-06-19T12:44:30;97438.50;;;28.13;39.12
38912;BME280;28444;48.056;14.408;2023-06-19T12:47:17;97446.28;;;28.18;39.46
38912;BME280;28444;48.056;14.408;2023-06-19T12:50:05;97434.97;;;28.08;39.25
38912;BME280;28444;48.056;14.408;2023-06-19T12:52:52;97432.19;;;28.12;40.18
38912;BME280;28444;48.056;14.408;2023-06-19T12:55:39;97431.41;;;28.03;39.42
38912;BME280;28444;48.056;14.408;2023-06-19T12:58:45;97426.53;;;28.08;38.81
38912;BME280;28444;48.056;14.408;2023-06-19T13:01:32;97422.25;;;28.03;40.58
38912;BME280;28444;48.056;14.408;2023-06-19T13:04:19;97427.25;;;28.11;40.28
38912;BME280;28444;48.056;14.408;2023-06-19T13:07:06;97427.94;;;28.09;39.68
38912;BME280;28444;48.056;14.408;2023-06-19T13:09:53;97427.91;;;28.05;41.57
38912;BME280;28444;48.056;14.408;2023-06-19T13:12:40;97425.06;;;28.01;40.93
38912;BME280;28444;48.056;14.408;2023-06-19T13:15:27;97421.47;;;27.92;39.30
38912;BME280;28444;48.056;14.408;2023-06-19T13:18:14;97421.50;;;27.94;40.05
38912;BME280;28444;48.056;14.408;2023-06-19T13:21:01;97422.97;;;28.01;40.83
38912;BME280;28444;48.056;14.408;2023-06-19T13:23:48;97425.16;;;28.13;42.51
38912;BME280;28444;48.056;14.408;2023-06-19T13:26:35;97413.94;;;28.15;39.70
38912;BME280;28444;48.056;14.408;2023-06-19T13:29:22;97414.69;;;28.20;39.56
38912;BME280;28444;48.056;14.408;2023-06-19T13:32:09;97418.94;;;28.23;39.57
38912;BME280;28444;48.056;14.408;2023-06-19T13:34:56;97405.56;;;28.19;39.25
38912;BME280;28444;48.056;14.408;2023-06-19T13:37:43;97406.94;;;28.16;39.03
38912;BME280;28444;48.056;14.408;2023-06-19T13:40:30;97412.63;;;28.26;39.74
38912;BME280;28444;48.056;14.408;2023-06-19T13:43:17;97414.16;;;28.38;40.06
38912;BME280;28444;48.056;14.408;2023-06-19T13:46:07;97404.38;;;28.45;39.32
38912;BME280;28444;48.056;14.408;2023-06-19T13:48:54;97407.16;;;28.43;40.03
38912;BME280;28444;48.056;14.408;2023-06-19T13:51:42;97403.72;;;28.52;40.04
38912;BME280;28444;48.056;14.408;2023-06-19T13:54:30;97407.28;;;28.59;40.40
38912;BME280;28444;48.056;14.408;2023-06-19T13:57:17;97397.44;;;28.60;41.30
38912;BME280;28444;48.056;14.408;2023-06-19T14:00:05;97401.56;;;28.45;40.03
38912;BME280;28444;48.056;14.408;2023-06-19T14:02:57;97406.56;;;28.61;41.03
38912;BME280;28444;48.056;14.408;2023-06-19T14:05:44;97406.44;;;28.42;43.71
38912;BME280;28444;48.056;14.408;2023-06-19T14:08:31;97398.56;;;28.24;38.38
38912;BME280;28444;48.056;14.408;2023-06-19T14:11:18;97394.31;;;28.19;40.27
38912;BME280;28444;48.056;14.408;2023-06-19T14:14:05;97381.69;;;28.24;40.53
38912;BME280;28444;48.056;14.408;2023-06-19T14:16:52;97381.72;;;28.28;40.77
38912;BME280;28444;48.056;14.408;2023-06-19T14:19:39;97378.22;;;28.28;40.08
38912;BME280;28444;48.056;14.408;2023-06-19T14:22:26;97382.38;;;28.21;43.84
38912;BME280;28444;48.056;14.408;2023-06-19T14:25:13;97376.75;;;28.19;40.97
38912;BME280;28444;48.056;14.408;2023-06-19T14:28:00;97377.44;;;28.15;41.53
38912;BME280;28444;48.056;14.408;2023-06-19T14:30:47;97372.56;;;28.22;42.49
38912;BME280;28444;48.056;14.408;2023-06-19T14:33:34;97369.00;;;28.15;41.47
38912;BME280;28444;48.056;14.408;2023-06-19T14:36:23;97371.00;;;28.04;41.46
38912;BME280;28444;48.056;14.408;2023-06-19T14:39:10;97375.97;;;28.08;41.18
38912;BME280;28444;48.056;14.408;2023-06-19T14:41:58;97371.09;;;28.17;41.30